sensor_id;sensor_type;location;lat;lon;timestamp;temperature;humidity
14873;DHT22;7528;48.576;19.122;2022-09-28T00:01:09;13.60;81.40
14873;DHT22;7528;48.576;19.122;2022-09-28T00:06:19;13.70;82.70
14873;DHT22;7528;48.576;19.122;2022-09-28T00:11:23;13.70;83.40
14873;DHT22;7528;48.576;19.122;2022-09-28T00:16:31;13.70;83.40
14873;DHT22;7528;48.576;19.122;2022-09-28T00:21:35;13.70;84.00
14873;DHT22;7528;48.576;19.122;2022-09-28T00:26:40;13.70;84.50
14873;DHT22;7528;48.576;19.122;2022-09-28T00:31:44;13.70;85.10
14873;DHT22;7528;48.576;19.122;2022-09-28T00:36:48;13.70;85.80
14873;DHT22;7528;48.576;19.122;2022-09-28T00:41:50;13.80;85.80
14873;DHT22;7528;48.576;19.122;2022-09-28T00:46:58;13.90;85.40
14873;DHT22;7528;48.576;19.122;2022-09-28T00:52:04;14.00;84.60
14873;DHT22;7528;48.576;19.122;2022-09-28T00:57:07;14.00;84.30
14873;DHT22;7528;48.576;19.122;2022-09-28T01:02:11;14.00;84.20
14873;DHT22;7528;48.576;19.122;2022-09-28T01:07:15;14.00;84.20
14873;DHT22;7528;48.576;19.122;2022-09-28T01:12:18;13.90;83.80
14873;DHT22;7528;48.576;19.122;2022-09-28T01:17:25;13.90;83.20
14873;DHT22;7528;48.576;19.122;2022-09-28T01:22:48;13.80;82.90
14873;DHT22;7528;48.576;19.122;2022-09-28T01:28:01;13.70;82.30
14873;DHT22;7528;48.576;19.122;2022-09-28T01:33:09;13.60;82.00
14873;DHT22;7528;48.576;19.122;2022-09-28T01:38:16;13.40;81.10
14873;DHT22;7528;48.576;19.122;2022-09-28T01:43:24;13.40;80.90
14873;DHT22;7528;48.576;19.122;2022-09-28T01:48:32;13.30;80.30
14873;DHT22;7528;48.576;19.122;2022-09-28T01:53:39;13.10;80.60
14873;DHT22;7528;48.576;19.122;2022-09-28T01:58:53;13.00;80.80
14873;DHT22;7528;48.576;19.122;2022-09-28T02:03:59;12.90;81.20
14873;DHT22;7528;48.576;19.122;2022-09-28T02:09:08;12.90;81.70
14873;DHT22;7528;48.576;19.122;2022-09-28T02:14:20;12.90;81.50
14873;DHT22;7528;48.576;19.122;2022-09-28T02:19:26;12.80;81.30
14873;DHT22;7528;48.576;19.122;2022-09-28T02:24:35;12.80;81.70
14873;DHT22;7528;48.576;19.122;2022-09-28T02:29:40;12.80;81.50
14873;DHT22;7528;48.576;19.122;2022-09-28T02:34:43;12.80;81.40
14873;DHT22;7528;48.576;19.122;2022-09-28T02:39:45;12.70;81.60
14873;DHT22;7528;48.576;19.122;2022-09-28T02:45:03;12.80;81.40
14873;DHT22;7528;48.576;19.122;2022-09-28T02:50:14;12.80;81.50
14873;DHT22;7528;48.576;19.122;2022-09-28T02:55:31;12.70;81.70
14873;DHT22;7528;48.576;19.122;2022-09-28T03:00:43;12.70;81.80
14873;DHT22;7528;48.576;19.122;2022-09-28T03:05:52;12.90;82.50
14873;DHT22;7528;48.576;19.122;2022-09-28T03:11:01;12.90;81.30
14873;DHT22;7528;48.576;19.122;2022-09-28T03:16:12;12.80;81.00
14873;DHT22;7528;48.576;19.122;2022-09-28T03:21:17;12.90;81.40
14873;DHT22;7528;48.576;19.122;2022-09-28T03:26:19;12.80;81.00
14873;DHT22;7528;48.576;19.122;2022-09-28T03:31:24;12.80;81.20
14873;DHT22;7528;48.576;19.122;2022-09-28T03:36:27;12.80;80.70
14873;DHT22;7528;48.576;19.122;2022-09-28T03:41:29;12.80;80.70
14873;DHT22;7528;48.576;19.122;2022-09-28T03:46:33;12.80;80.30
14873;DHT22;7528;48.576;19.122;2022-09-28T03:51:40;12.70;80.00
14873;DHT22;7528;48.576;19.122;2022-09-28T03:56:43;12.70;80.10
14873;DHT22;7528;48.576;19.122;2022-09-28T04:01:47;12.60;79.60
14873;DHT22;7528;48.576;19.122;2022-09-28T04:06:50;12.60;80.30
14873;DHT22;7528;48.576;19.122;2022-09-28T04:11:53;12.50;80.00
14873;DHT22;7528;48.576;19.122;2022-09-28T04:16:56;12.40;80.20
14873;DHT22;7528;48.576;19.122;2022-09-28T04:22:01;12.40;80.20
14873;DHT22;7528;48.576;19.122;2022-09-28T04:27:05;12.40;79.80
14873;DHT22;7528;48.576;19.122;2022-09-28T04:32:27;12.40;79.80
14873;DHT22;7528;48.576;19.122;2022-09-28T04:37:29;12.30;79.40
14873;DHT22;7528;48.576;19.122;2022-09-28T04:42:32;12.10;79.70
14873;DHT22;7528;48.576;19.122;2022-09-28T04:47:36;12.00;81.00
14873;DHT22;7528;48.576;19.122;2022-09-28T04:52:44;12.00;81.40
14873;DHT22;7528;48.576;19.122;2022-09-28T04:57:47;12.00;81.10
14873;DHT22;7528;48.576;19.122;2022-09-28T05:02:51;12.00;81.40
14873;DHT22;7528;48.576;19.122;2022-09-28T05:08:21;12.10;81.20
14873;DHT22;7528;48.576;19.122;2022-09-28T05:13:24;12.10;81.40
14873;DHT22;7528;48.576;19.122;2022-09-28T05:18:28;12.00;82.20
14873;DHT22;7528;48.576;19.122;2022-09-28T05:23:36;12.00;82.00
14873;DHT22;7528;48.576;19.122;2022-09-28T05:28:40;11.90;82.20
14873;DHT22;7528;48.576;19.122;2022-09-28T05:33:59;11.80;82.20
14873;DHT22;7528;48.576;19.122;2022-09-28T05:39:02;11.70;81.90
14873;DHT22;7528;48.576;19.122;2022-09-28T05:44:05;11.80;82.50
14873;DHT22;7528;48.576;19.122;2022-09-28T05:49:10;11.80;81.60
14873;DHT22;7528;48.576;19.122;2022-09-28T05:54:13;11.90;81.30
14873;DHT22;7528;48.576;19.122;2022-09-28T05:59:19;12.00;82.10
14873;DHT22;7528;48.576;19.122;2022-09-28T06:04:24;12.00;81.00
14873;DHT22;7528;48.576;19.122;2022-09-28T06:09:26;12.00;81.80
14873;DHT22;7528;48.576;19.122;2022-09-28T06:14:47;12.10;81.10
14873;DHT22;7528;48.576;19.122;2022-09-28T06:19:51;12.00;81.10
14873;DHT22;7528;48.576;19.122;2022-09-28T06:25:06;12.10;81.30
14873;DHT22;7528;48.576;19.122;2022-09-28T06:30:09;12.20;80.80
14873;DHT22;7528;48.576;19.122;2022-09-28T06:35:15;12.40;80.30
14873;DHT22;7528;48.576;19.122;2022-09-28T06:40:18;12.80;80.00
14873;DHT22;7528;48.576;19.122;2022-09-28T06:45:21;12.90;79.70
14873;DHT22;7528;48.576;19.122;2022-09-28T06:50:59;13.00;79.00
14873;DHT22;7528;48.576;19.122;2022-09-28T06:56:07;13.10;78.80
14873;DHT22;7528;48.576;19.122;2022-09-28T07:01:10;13.40;78.10
14873;DHT22;7528;48.576;19.122;2022-09-28T07:06:47;13.70;76.50
14873;DHT22;7528;48.576;19.122;2022-09-28T07:12:20;13.90;77.70
14873;DHT22;7528;48.576;19.122;2022-09-28T07:17:34;14.30;75.90
14873;DHT22;7528;48.576;19.122;2022-09-28T07:22:39;14.50;76.50
14873;DHT22;7528;48.576;19.122;2022-09-28T07:27:42;15.30;75.40
14873;DHT22;7528;48.576;19.122;2022-09-28T07:33:12;16.50;71.50
14873;DHT22;7528;48.576;19.122;2022-09-28T07:38:29;17.50;68.60
14873;DHT22;7528;48.576;19.122;2022-09-28T07:43:31;18.90;64.20
14873;DHT22;7528;48.576;19.122;2022-09-28T07:48:34;19.90;58.70
14873;DHT22;7528;48.576;19.122;2022-09-28T07:53:57;20.90;57.90
14873;DHT22;7528;48.576;19.122;2022-09-28T07:59:18;21.90;53.70
14873;DHT22;7528;48.576;19.122;2022-09-28T08:04:39;23.00;50.90
14873;DHT22;7528;48.576;19.122;2022-09-28T08:09:43;24.40;47.00
14873;DHT22;7528;48.576;19.122;2022-09-28T08:15:09;25.90;42.50
14873;DHT22;7528;48.576;19.122;2022-09-28T08:20:27;27.00;39.90
14873;DHT22;7528;48.576;19.122;2022-09-28T08:25:53;28.20;36.20
14873;DHT22;7528;48.576;19.122;2022-09-28T08:30:59;29.20;36.90
14873;DHT22;7528;48.576;19.122;2022-09-28T08:36:05;30.00;35.30
14873;DHT22;7528;48.576;19.122;2022-09-28T08:41:43;31.20;35.20
14873;DHT22;7528;48.576;19.122;2022-09-28T08:47:17;32.20;30.30
14873;DHT22;7528;48.576;19.122;2022-09-28T08:53:07;32.30;31.10
14873;DHT22;7528;48.576;19.122;2022-09-28T08:58:32;31.10;31.60
14873;DHT22;7528;48.576;19.122;2022-09-28T09:03:38;31.30;31.30
14873;DHT22;7528;48.576;19.122;2022-09-28T09:09:15;31.60;30.70
14873;DHT22;7528;48.576;19.122;2022-09-28T09:19:52;31.60;28.50
14873;DHT22;7528;48.576;19.122;2022-09-28T09:25:16;31.10;30.40
14873;DHT22;7528;48.576;19.122;2022-09-28T09:30:21;30.20;32.20
14873;DHT22;7528;48.576;19.122;2022-09-28T09:35:38;29.30;34.20
14873;DHT22;7528;48.576;19.122;2022-09-28T09:41:06;29.00;33.20
14873;DHT22;7528;48.576;19.122;2022-09-28T09:46:36;30.00;32.90
14873;DHT22;7528;48.576;19.122;2022-09-28T09:51:55;31.20;31.40
14873;DHT22;7528;48.576;19.122;2022-09-28T09:57:02;31.10;29.60
14873;DHT22;7528;48.576;19.122;2022-09-28T10:02:34;31.40;30.60
14873;DHT22;7528;48.576;19.122;2022-09-28T10:07:48;31.30;29.90
14873;DHT22;7528;48.576;19.122;2022-09-28T10:12:53;31.80;31.50
14873;DHT22;7528;48.576;19.122;2022-09-28T10:17:59;33.30;28.50
14873;DHT22;7528;48.576;19.122;2022-09-28T10:23:35;35.00;28.80
14873;DHT22;7528;48.576;19.122;2022-09-28T10:28:44;36.10;25.40
14873;DHT22;7528;48.576;19.122;2022-09-28T10:33:52;36.30;24.90
14873;DHT22;7528;48.576;19.122;2022-09-28T10:38:55;35.80;24.60
14873;DHT22;7528;48.576;19.122;2022-09-28T10:44:06;35.80;25.60
14873;DHT22;7528;48.576;19.122;2022-09-28T10:49:52;35.90;25.10
14873;DHT22;7528;48.576;19.122;2022-09-28T10:54:58;35.90;24.00
14873;DHT22;7528;48.576;19.122;2022-09-28T11:00:02;34.80;25.60
14873;DHT22;7528;48.576;19.122;2022-09-28T11:05:24;33.80;26.20
14873;DHT22;7528;48.576;19.122;2022-09-28T11:10:31;35.10;25.80
14873;DHT22;7528;48.576;19.122;2022-09-28T11:15:43;36.00;24.40
14873;DHT22;7528;48.576;19.122;2022-09-28T11:21:07;35.70;24.80
14873;DHT22;7528;48.576;19.122;2022-09-28T11:26:10;35.80;24.80
14873;DHT22;7528;48.576;19.122;2022-09-28T11:31:13;34.80;26.30
14873;DHT22;7528;48.576;19.122;2022-09-28T11:37:03;34.70;26.80
14873;DHT22;7528;48.576;19.122;2022-09-28T11:42:17;34.40;25.90
14873;DHT22;7528;48.576;19.122;2022-09-28T11:47:36;34.10;25.60
14873;DHT22;7528;48.576;19.122;2022-09-28T11:52:48;32.20;27.40
14873;DHT22;7528;48.576;19.122;2022-09-28T11:57:59;30.60;29.70
14873;DHT22;7528;48.576;19.122;2022-09-28T12:03:07;29.80;31.00
14873;DHT22;7528;48.576;19.122;2022-09-28T12:08:17;29.40;32.40
14873;DHT22;7528;48.576;19.122;2022-09-28T12:13:37;29.60;31.50
14873;DHT22;7528;48.576;19.122;2022-09-28T12:18:45;30.90;30.70
14873;DHT22;7528;48.576;19.122;2022-09-28T12:23:49;31.70;29.70
14873;DHT22;7528;48.576;19.122;2022-09-28T12:28:57;32.30;28.30
14873;DHT22;7528;48.576;19.122;2022-09-28T12:34:02;32.10;28.00
14873;DHT22;7528;48.576;19.122;2022-09-28T12:39:22;32.00;28.30
14873;DHT22;7528;48.576;19.122;2022-09-28T12:44:46;32.50;28.60
14873;DHT22;7528;48.576;19.122;2022-09-28T12:50:05;32.20;28.60
14873;DHT22;7528;48.576;19.122;2022-09-28T12:55:31;31.90;29.00
14873;DHT22;7528;48.576;19.122;2022-09-28T13:00:41;31.30;29.80
14873;DHT22;7528;48.576;19.122;2022-09-28T13:06:14;30.80;30.70
14873;DHT22;7528;48.576;19.122;2022-09-28T13:11:26;30.40;31.60
14873;DHT22;7528;48.576;19.122;2022-09-28T13:16:36;29.70;32.10
14873;DHT22;7528;48.576;19.122;2022-09-28T13:21:46;28.50;34.20
14873;DHT22;7528;48.576;19.122;2022-09-28T13:26:54;27.60;36.10
14873;DHT22;7528;48.576;19.122;2022-09-28T13:31:59;27.30;36.70
14873;DHT22;7528;48.576;19.122;2022-09-28T13:37:21;27.10;36.40
14873;DHT22;7528;48.576;19.122;2022-09-28T13:42:53;26.60;38.40
14873;DHT22;7528;48.576;19.122;2022-09-28T13:48:13;26.00;37.90
14873;DHT22;7528;48.576;19.122;2022-09-28T13:53:22;25.60;39.50
14873;DHT22;7528;48.576;19.122;2022-09-28T13:58:31;25.10;39.00
14873;DHT22;7528;48.576;19.122;2022-09-28T14:03:52;24.80;40.90
14873;DHT22;7528;48.576;19.122;2022-09-28T14:09:27;24.50;39.60
14873;DHT22;7528;48.576;19.122;2022-09-28T14:14:48;23.80;41.00
14873;DHT22;7528;48.576;19.122;2022-09-28T14:19:52;23.40;42.70
14873;DHT22;7528;48.576;19.122;2022-09-28T14:25:04;23.10;43.50
14873;DHT22;7528;48.576;19.122;2022-09-28T14:30:24;22.90;43.90
14873;DHT22;7528;48.576;19.122;2022-09-28T14:35:30;22.70;44.70
14873;DHT22;7528;48.576;19.122;2022-09-28T14:40:56;22.50;45.20
14873;DHT22;7528;48.576;19.122;2022-09-28T14:46:35;22.30;45.90
14873;DHT22;7528;48.576;19.122;2022-09-28T14:52:01;22.00;46.60
14873;DHT22;7528;48.576;19.122;2022-09-28T14:57:16;21.70;47.00
14873;DHT22;7528;48.576;19.122;2022-09-28T15:02:24;21.50;47.60
14873;DHT22;7528;48.576;19.122;2022-09-28T15:07:29;21.30;47.90
14873;DHT22;7528;48.576;19.122;2022-09-28T15:12:43;21.20;48.80
14873;DHT22;7528;48.576;19.122;2022-09-28T15:17:54;21.00;48.70
14873;DHT22;7528;48.576;19.122;2022-09-28T15:23:00;21.00;48.50
14873;DHT22;7528;48.576;19.122;2022-09-28T15:28:16;20.80;48.90
14873;DHT22;7528;48.576;19.122;2022-09-28T15:33:25;20.70;49.70
14873;DHT22;7528;48.576;19.122;2022-09-28T15:38:52;20.60;50.60
14873;DHT22;7528;48.576;19.122;2022-09-28T15:44:18;20.50;50.80
14873;DHT22;7528;48.576;19.122;2022-09-28T15:49:35;20.40;50.80
14873;DHT22;7528;48.576;19.122;2022-09-28T15:54:41;20.40;51.20
14873;DHT22;7528;48.576;19.122;2022-09-28T15:59:52;20.30;52.10
14873;DHT22;7528;48.576;19.122;2022-09-28T16:04:59;20.10;52.70
14873;DHT22;7528;48.576;19.122;2022-09-28T16:10:08;19.90;55.70
14873;DHT22;7528;48.576;19.122;2022-09-28T16:15:29;19.80;55.40
14873;DHT22;7528;48.576;19.122;2022-09-28T16:20:36;19.70;57.40
14873;DHT22;7528;48.576;19.122;2022-09-28T16:25:47;19.70;57.50
14873;DHT22;7528;48.576;19.122;2022-09-28T16:30:59;19.50;57.70
14873;DHT22;7528;48.576;19.122;2022-09-28T16:36:10;19.50;58.80
14873;DHT22;7528;48.576;19.122;2022-09-28T16:41:14;19.50;60.70
14873;DHT22;7528;48.576;19.122;2022-09-28T16:46:20;19.50;59.60
14873;DHT22;7528;48.576;19.122;2022-09-28T16:51:25;19.50;61.00
14873;DHT22;7528;48.576;19.122;2022-09-28T16:56:28;19.30;62.50
14873;DHT22;7528;48.576;19.122;2022-09-28T17:01:31;19.20;63.30
14873;DHT22;7528;48.576;19.122;2022-09-28T17:06:35;19.10;63.50
14873;DHT22;7528;48.576;19.122;2022-09-28T17:11:38;19.10;63.00
14873;DHT22;7528;48.576;19.122;2022-09-28T17:16:41;19.10;64.00
14873;DHT22;7528;48.576;19.122;2022-09-28T17:21:45;19.00;63.40
14873;DHT22;7528;48.576;19.122;2022-09-28T17:26:49;18.90;64.20
14873;DHT22;7528;48.576;19.122;2022-09-28T17:31:52;18.80;64.80
14873;DHT22;7528;48.576;19.122;2022-09-28T17:36:56;18.70;65.50
14873;DHT22;7528;48.576;19.122;2022-09-28T17:41:59;18.70;66.20
14873;DHT22;7528;48.576;19.122;2022-09-28T17:47:01;18.60;66.30
14873;DHT22;7528;48.576;19.122;2022-09-28T17:52:05;18.60;66.50
14873;DHT22;7528;48.576;19.122;2022-09-28T17:57:08;18.50;67.00
14873;DHT22;7528;48.576;19.122;2022-09-28T18:02:11;18.50;67.00
14873;DHT22;7528;48.576;19.122;2022-09-28T18:07:15;18.30;67.30
14873;DHT22;7528;48.576;19.122;2022-09-28T18:12:17;18.30;67.90
14873;DHT22;7528;48.576;19.122;2022-09-28T18:17:19;18.30;67.70
14873;DHT22;7528;48.576;19.122;2022-09-28T18:22:23;18.20;68.70
14873;DHT22;7528;48.576;19.122;2022-09-28T18:27:27;18.10;69.00
14873;DHT22;7528;48.576;19.122;2022-09-28T18:32:32;18.10;69.00
14873;DHT22;7528;48.576;19.122;2022-09-28T18:37:36;18.00;69.50
14873;DHT22;7528;48.576;19.122;2022-09-28T18:42:40;18.00;70.30
14873;DHT22;7528;48.576;19.122;2022-09-28T18:47:43;18.00;69.90
14873;DHT22;7528;48.576;19.122;2022-09-28T18:52:46;18.00;70.50
14873;DHT22;7528;48.576;19.122;2022-09-28T18:57:49;18.00;70.40
14873;DHT22;7528;48.576;19.122;2022-09-28T19:02:52;18.00;70.10
14873;DHT22;7528;48.576;19.122;2022-09-28T19:07:56;17.90;70.90
14873;DHT22;7528;48.576;19.122;2022-09-28T19:12:59;17.90;71.10
14873;DHT22;7528;48.576;19.122;2022-09-28T19:18:01;17.80;71.30
14873;DHT22;7528;48.576;19.122;2022-09-28T19:23:06;17.70;71.90
14873;DHT22;7528;48.576;19.122;2022-09-28T19:28:08;17.70;72.00
14873;DHT22;7528;48.576;19.122;2022-09-28T19:33:11;17.60;73.30
14873;DHT22;7528;48.576;19.122;2022-09-28T19:38:14;17.50;73.80
14873;DHT22;7528;48.576;19.122;2022-09-28T19:43:17;17.60;73.80
14873;DHT22;7528;48.576;19.122;2022-09-28T19:48:24;17.60;73.30
14873;DHT22;7528;48.576;19.122;2022-09-28T19:53:30;17.60;73.30
14873;DHT22;7528;48.576;19.122;2022-09-28T19:58:35;17.60;72.40
14873;DHT22;7528;48.576;19.122;2022-09-28T20:03:37;17.60;72.40
14873;DHT22;7528;48.576;19.122;2022-09-28T20:08:41;17.60;73.00
14873;DHT22;7528;48.576;19.122;2022-09-28T20:13:44;17.50;72.90
14873;DHT22;7528;48.576;19.122;2022-09-28T20:18:47;17.40;73.90
14873;DHT22;7528;48.576;19.122;2022-09-28T20:23:52;17.30;73.60
14873;DHT22;7528;48.576;19.122;2022-09-28T20:28:56;17.30;73.90
14873;DHT22;7528;48.576;19.122;2022-09-28T20:33:58;17.30;74.10
14873;DHT22;7528;48.576;19.122;2022-09-28T20:39:02;17.30;74.40
14873;DHT22;7528;48.576;19.122;2022-09-28T20:44:05;17.20;75.00
14873;DHT22;7528;48.576;19.122;2022-09-28T20:49:09;17.20;74.80
14873;DHT22;7528;48.576;19.122;2022-09-28T20:54:13;17.20;74.90
14873;DHT22;7528;48.576;19.122;2022-09-28T20:59:15;17.20;75.30
14873;DHT22;7528;48.576;19.122;2022-09-28T21:04:18;17.20;75.60
14873;DHT22;7528;48.576;19.122;2022-09-28T21:09:22;17.20;75.70
14873;DHT22;7528;48.576;19.122;2022-09-28T21:14:25;17.10;76.20
14873;DHT22;7528;48.576;19.122;2022-09-28T21:19:27;17.10;76.50
14873;DHT22;7528;48.576;19.122;2022-09-28T21:24:31;17.10;76.50
14873;DHT22;7528;48.576;19.122;2022-09-28T21:29:34;17.10;76.10
14873;DHT22;7528;48.576;19.122;2022-09-28T21:34:36;17.00;75.30
14873;DHT22;7528;48.576;19.122;2022-09-28T21:39:40;16.80;76.30
14873;DHT22;7528;48.576;19.122;2022-09-28T21:44:44;16.70;77.70
14873;DHT22;7528;48.576;19.122;2022-09-28T21:49:46;16.60;77.80
14873;DHT22;7528;48.576;19.122;2022-09-28T21:54:50;16.50;78.40
14873;DHT22;7528;48.576;19.122;2022-09-28T21:59:52;16.50;78.60
14873;DHT22;7528;48.576;19.122;2022-09-28T22:04:55;16.70;78.90
14873;DHT22;7528;48.576;19.122;2022-09-28T22:09:59;16.70;78.50
14873;DHT22;7528;48.576;19.122;2022-09-28T22:15:02;16.60;78.50
14873;DHT22;7528;48.576;19.122;2022-09-28T22:20:05;16.60;78.30
14873;DHT22;7528;48.576;19.122;2022-09-28T22:25:09;16.70;77.70
14873;DHT22;7528;48.576;19.122;2022-09-28T22:30:12;16.60;77.90
14873;DHT22;7528;48.576;19.122;2022-09-28T22:35:15;16.60;78.60
14873;DHT22;7528;48.576;19.122;2022-09-28T22:40:19;16.50;78.30
14873;DHT22;7528;48.576;19.122;2022-09-28T22:45:21;16.40;79.00
14873;DHT22;7528;48.576;19.122;2022-09-28T22:50:24;16.40;79.60
14873;DHT22;7528;48.576;19.122;2022-09-28T22:55:27;16.50;79.40
14873;DHT22;7528;48.576;19.122;2022-09-28T23:00:33;16.50;79.40
14873;DHT22;7528;48.576;19.122;2022-09-28T23:05:36;16.60;79.70
14873;DHT22;7528;48.576;19.122;2022-09-28T23:10:40;16.60;79.40
14873;DHT22;7528;48.576;19.122;2022-09-28T23:15:43;16.50;79.40
14873;DHT22;7528;48.576;19.122;2022-09-28T23:20:56;16.50;79.70
14873;DHT22;7528;48.576;19.122;2022-09-28T23:26:09;16.50;79.50
14873;DHT22;7528;48.576;19.122;2022-09-28T23:31:14;16.60;79.70
14873;DHT22;7528;48.576;19.122;2022-09-28T23:36:17;16.60;79.60
14873;DHT22;7528;48.576;19.122;2022-09-28T23:41:21;16.50;79.80
14873;DHT22;7528;48.576;19.122;2022-09-28T23:46:24;16.60;80.20
14873;DHT22;7528;48.576;19.122;2022-09-28T23:51:26;16.50;80.40
14873;DHT22;7528;48.576;19.122;2022-09-28T23:56:31;16.50;80.10
